createdAt,value
2018-06-18T00:00:07.587Z,81.17
2018-06-18T00:02:36.243Z,81.07
2018-06-18T00:05:04.874Z,81.01
2018-06-18T00:07:33.483Z,80.81
2018-06-18T00:10:02.129Z,81.10
2018-06-18T00:12:30.757Z,80.94
2018-06-18T00:14:59.386Z,81.33
2018-06-18T00:17:28.026Z,81.47
2018-06-18T00:19:56.690Z,81.23
2018-06-18T00:22:25.302Z,81.94
2018-06-18T00:24:53.950Z,82.43
2018-06-18T00:27:22.593Z,82.56
2018-06-18T00:29:51.205Z,83.09
2018-06-18T00:32:19.837Z,83.35
2018-06-18T00:34:48.500Z,83.28
2018-06-18T00:37:17.276Z,83.61
2018-06-18T00:39:46.036Z,83.41
2018-06-18T00:42:14.680Z,83.77
2018-06-18T00:44:43.405Z,84.67
2018-06-18T00:47:12.011Z,83.65
2018-06-18T00:49:40.666Z,83.27
2018-06-18T00:52:09.346Z,82.88
2018-06-18T00:54:37.966Z,83.36
2018-06-18T00:57:06.575Z,83.11
2018-06-18T00:59:35.218Z,82.50
2018-06-18T01:02:03.936Z,82.19
2018-06-18T01:04:32.590Z,81.58
2018-06-18T01:07:01.277Z,81.60
2018-06-18T01:09:29.974Z,81.68
2018-06-18T01:11:58.586Z,81.79
2018-06-18T01:14:27.240Z,81.66
2018-06-18T01:16:55.890Z,82.28
2018-06-18T01:19:24.913Z,81.75
2018-06-18T01:21:53.590Z,81.33
2018-06-18T01:24:29.555Z,81.33
2018-06-18T01:26:58.130Z,81.43
2018-06-18T01:29:26.890Z,81.69
2018-06-18T01:31:55.490Z,81.75
2018-06-18T01:34:26.462Z,81.97
2018-06-18T01:36:55.546Z,81.69
2018-06-18T01:39:24.751Z,81.23
2018-06-18T01:41:54.007Z,81.66
2018-06-18T01:44:22.657Z,81.71
2018-06-18T01:46:51.246Z,81.67
2018-06-18T01:49:19.985Z,81.09
2018-06-18T01:51:48.655Z,81.42
2018-06-18T01:54:17.332Z,81.66
2018-06-18T01:56:46.031Z,81.77
2018-06-18T01:59:14.686Z,82.05
2018-06-18T02:01:43.278Z,82.31
2018-06-18T02:04:11.976Z,82.31
2018-06-18T02:06:40.568Z,82.59
2018-06-18T02:09:11.391Z,82.28
2018-06-18T02:11:40.119Z,82.38
2018-06-18T02:14:09.417Z,82.00
2018-06-18T02:16:38.090Z,82.49
2018-06-18T02:19:06.996Z,82.89
2018-06-18T02:21:35.644Z,82.83
2018-06-18T02:24:04.334Z,83.25
2018-06-18T02:26:33.069Z,82.64
2018-06-18T02:29:07.513Z,82.34
2018-06-18T02:31:41.258Z,82.66
2018-06-18T02:34:14.904Z,82.45
2018-06-18T02:36:48.644Z,82.89
2018-06-18T02:39:17.349Z,82.79
2018-06-18T02:41:46.401Z,82.85
2018-06-18T02:44:15.735Z,82.38
2018-06-18T02:46:44.418Z,82.75
2018-06-18T02:49:13.094Z,83.30
2018-06-18T02:51:41.722Z,83.61
2018-06-18T02:54:10.666Z,83.16
2018-06-18T02:56:49.498Z,84.25
2018-06-18T02:59:18.263Z,83.93
2018-06-18T03:01:46.862Z,84.24
2018-06-18T03:04:15.523Z,83.79
2018-06-18T03:06:44.241Z,83.27
2018-06-18T03:09:13.269Z,83.45
2018-06-18T03:11:41.996Z,83.47
2018-06-18T03:14:10.926Z,83.50
2018-06-18T03:16:39.668Z,82.98
2018-06-18T03:19:13.535Z,83.05
2018-06-18T03:21:47.326Z,82.73
2018-06-18T03:24:21.083Z,82.56
2018-06-18T03:26:54.931Z,82.08
2018-06-18T03:29:25.886Z,82.48
2018-06-18T03:31:56.278Z,82.37
2018-06-18T03:34:24.893Z,82.73
2018-06-18T03:36:54.027Z,82.82
2018-06-18T03:39:22.727Z,82.92
2018-06-18T03:41:52.281Z,82.96
2018-06-18T03:44:25.698Z,83.00
2018-06-18T03:46:54.769Z,82.13
2018-06-18T03:49:23.394Z,82.33
2018-06-18T03:51:52.020Z,82.02
2018-06-18T03:54:20.626Z,81.80
2018-06-18T03:56:49.285Z,82.44
2018-06-18T03:59:17.988Z,81.91
2018-06-18T04:02:11.193Z,81.97
2018-06-18T04:04:51.198Z,81.76
2018-06-18T04:07:26.127Z,81.68
2018-06-18T04:10:00.442Z,81.58
2018-06-18T04:12:29.115Z,81.88
2018-06-18T04:14:58.012Z,81.43
2018-06-18T04:17:26.657Z,81.38
2018-06-18T04:19:55.273Z,81.75
2018-06-18T04:22:23.963Z,80.99
2018-06-18T04:24:52.591Z,81.48
2018-06-18T04:27:21.250Z,81.67
2018-06-18T04:29:49.914Z,81.25
2018-06-18T04:32:18.609Z,81.32
2018-06-18T04:34:51.117Z,81.06
2018-06-18T04:37:19.783Z,80.86
2018-06-18T04:39:48.433Z,80.78
2018-06-18T04:42:22.074Z,80.58
2018-06-18T04:44:55.967Z,80.33
2018-06-18T04:47:29.845Z,80.63
2018-06-18T04:50:03.787Z,79.63
2018-06-18T04:52:32.750Z,80.33
2018-06-18T04:55:01.389Z,79.54
2018-06-18T04:57:30.070Z,80.34
2018-06-18T05:00:05.994Z,80.43
2018-06-18T05:02:34.675Z,80.66
2018-06-18T05:05:03.298Z,80.77
2018-06-18T05:07:31.984Z,80.83
2018-06-18T05:10:10.710Z,80.35
2018-06-18T05:12:39.314Z,80.70
2018-06-18T05:15:08.031Z,80.18
2018-06-18T05:17:36.930Z,80.27
2018-06-18T05:20:05.650Z,80.79
2018-06-18T05:22:34.302Z,80.44
2018-06-18T05:25:02.916Z,80.22
2018-06-18T05:27:33.523Z,80.31
2018-06-18T05:30:08.386Z,79.01
2018-06-18T05:32:37.014Z,78.72
2018-06-18T05:35:06.648Z,78.68
2018-06-18T05:37:43.919Z,78.44
2018-06-18T05:40:12.518Z,79.09
2018-06-18T05:42:41.129Z,79.23
2018-06-18T05:45:09.825Z,78.15
2018-06-18T05:47:38.639Z,78.61
2018-06-18T05:50:07.360Z,78.55
2018-06-18T05:52:35.978Z,78.26
2018-06-18T05:55:04.666Z,78.18
2018-06-18T05:57:34.012Z,78.43
2018-06-18T06:00:04.446Z,77.67
2018-06-18T06:02:33.088Z,77.85
2018-06-18T06:05:01.807Z,76.73
2018-06-18T06:07:30.461Z,76.24
2018-06-18T06:09:59.124Z,76.28
2018-06-18T06:12:27.837Z,76.50
2018-06-18T06:14:56.522Z,76.63
2018-06-18T06:17:25.168Z,75.75
2018-06-18T06:19:53.846Z,75.63
2018-06-18T06:22:22.558Z,75.02
2018-06-18T06:24:51.198Z,74.34
2018-06-18T06:27:19.844Z,74.62
2018-06-18T06:29:48.643Z,74.00
2018-06-18T06:32:17.310Z,73.56
2018-06-18T06:34:49.226Z,74.05
2018-06-18T06:37:17.888Z,73.57
2018-06-18T06:39:46.606Z,73.52
2018-06-18T06:42:21.511Z,72.95
2018-06-18T06:44:51.829Z,71.57
2018-06-18T06:47:20.459Z,71.36
2018-06-18T06:49:49.379Z,70.00
2018-06-18T06:52:18.112Z,70.34
2018-06-18T06:54:46.798Z,71.55
2018-06-18T06:57:15.587Z,72.34
2018-06-18T06:59:44.254Z,70.97
2018-06-18T07:02:12.898Z,71.64
2018-06-18T07:04:41.603Z,71.76
2018-06-18T07:07:10.296Z,71.07
2018-06-18T07:09:38.964Z,71.99
2018-06-18T07:12:07.725Z,70.72
2018-06-18T07:14:36.338Z,71.08
2018-06-18T07:17:04.981Z,70.87
2018-06-18T07:19:33.617Z,70.60
2018-06-18T07:22:02.278Z,70.47
2018-06-18T07:24:31.006Z,69.90
2018-06-18T07:26:59.626Z,68.88
2018-06-18T07:29:28.358Z,67.68
2018-06-18T07:31:57.671Z,67.80
2018-06-18T07:34:26.351Z,67.75
2018-06-18T07:36:55.000Z,68.11
2018-06-18T07:39:23.657Z,68.82
2018-06-18T07:41:52.333Z,67.91
2018-06-18T07:44:20.983Z,67.52
2018-06-18T07:46:49.687Z,66.30
2018-06-18T07:49:18.392Z,65.62
2018-06-18T07:51:47.078Z,67.20
2018-06-18T07:54:15.740Z,66.86
2018-06-18T07:56:44.386Z,67.18
2018-06-18T07:59:13.030Z,65.54
2018-06-18T08:01:41.736Z,64.76
2018-06-18T08:04:10.498Z,65.01
2018-06-18T08:06:39.138Z,64.81
2018-06-18T08:09:11.571Z,64.61
2018-06-18T08:11:40.499Z,64.17
2018-06-18T08:14:09.315Z,63.41
2018-06-18T08:16:38.148Z,63.28
2018-06-18T08:19:06.820Z,64.39
2018-06-18T08:21:35.862Z,63.93
2018-06-18T08:24:04.623Z,63.81
2018-06-18T08:26:33.368Z,62.96
2018-06-18T08:29:02.187Z,63.52
2018-06-18T08:31:31.874Z,63.53
2018-06-18T08:34:00.619Z,62.16
2018-06-18T08:36:29.329Z,61.86
2018-06-18T08:38:57.999Z,60.98
2018-06-18T08:41:26.642Z,60.80
2018-06-18T08:43:55.295Z,59.93
2018-06-18T08:46:23.971Z,60.06
2018-06-18T08:48:57.862Z,60.43
2018-06-18T08:52:33.505Z,58.66
2018-06-18T08:55:07.295Z,58.66
2018-06-18T08:57:41.121Z,57.73
2018-06-18T09:00:14.989Z,57.58
2018-06-18T09:02:48.544Z,58.79
2018-06-18T09:05:21.376Z,58.77
2018-06-18T09:07:54.061Z,58.32
2018-06-18T09:10:22.887Z,55.94
2018-06-18T09:12:51.706Z,55.40
2018-06-18T09:15:20.437Z,55.68
2018-06-18T09:17:49.114Z,56.34
2018-06-18T09:20:17.775Z,54.68
2018-06-18T09:22:46.445Z,54.30
2018-06-18T09:25:15.107Z,52.78
2018-06-18T09:27:43.758Z,53.42
2018-06-18T09:30:12.544Z,53.66
2018-06-18T09:32:41.329Z,52.80
2018-06-18T09:35:09.957Z,53.92
2018-06-18T09:37:38.644Z,54.72
2018-06-18T09:40:07.425Z,54.56
2018-06-18T09:42:36.111Z,55.74
2018-06-18T09:45:04.894Z,56.06
2018-06-18T09:47:33.589Z,55.62
2018-06-18T09:51:07.297Z,55.29
2018-06-18T09:53:41.246Z,55.04
2018-06-18T09:56:15.119Z,55.75
2018-06-18T09:58:49.027Z,54.95
2018-06-18T10:01:22.734Z,54.84
2018-06-18T10:03:51.803Z,53.23
2018-06-18T10:06:21.812Z,52.66
2018-06-18T10:08:50.583Z,52.26
2018-06-18T10:11:19.112Z,51.20
2018-06-18T10:13:47.797Z,50.63
2018-06-18T10:16:16.469Z,50.49
2018-06-18T10:18:45.061Z,49.72
2018-06-18T10:21:13.796Z,49.52
2018-06-18T10:23:42.441Z,47.95
2018-06-18T10:26:11.073Z,48.91
2018-06-18T10:28:39.694Z,47.66
2018-06-18T10:31:08.347Z,46.74
2018-06-18T10:33:42.206Z,47.84
2018-06-18T10:36:15.975Z,48.68
2018-06-18T10:38:49.741Z,49.64
2018-06-18T10:41:23.679Z,48.33
2018-06-18T10:43:52.375Z,47.95
2018-06-18T10:46:21.037Z,51.26
2018-06-18T10:48:49.703Z,50.28
2018-06-18T10:51:18.405Z,49.27
2018-06-18T10:53:47.102Z,49.71
2018-06-18T10:56:15.790Z,48.35
2018-06-18T10:58:44.577Z,48.80
2018-06-18T11:01:19.418Z,49.37
2018-06-18T11:03:48.154Z,49.36
2018-06-18T11:06:21.997Z,48.16
2018-06-18T11:08:50.716Z,46.63
2018-06-18T11:11:19.388Z,48.34
2018-06-18T11:13:48.038Z,47.06
2018-06-18T11:16:16.811Z,46.64
2018-06-18T11:18:50.505Z,46.36
2018-06-18T11:21:25.571Z,45.13
2018-06-18T11:23:59.461Z,43.86
2018-06-18T11:26:33.484Z,43.11
2018-06-18T11:29:02.207Z,42.96
2018-06-18T11:31:30.858Z,44.00
2018-06-18T11:33:59.543Z,42.85
2018-06-18T11:36:28.282Z,41.47
2018-06-18T11:38:56.965Z,41.55
2018-06-18T11:41:25.638Z,41.29
2018-06-18T11:43:54.374Z,39.37
2018-06-18T11:46:23.211Z,39.17
2018-06-18T11:48:51.898Z,38.19
2018-06-18T11:51:20.596Z,38.73
2018-06-18T11:53:49.316Z,39.79
2018-06-18T11:56:18.010Z,39.13
2018-06-18T11:58:52.034Z,39.54
2018-06-18T12:01:26.062Z,39.84
2018-06-18T12:03:59.918Z,40.57
2018-06-18T12:06:33.837Z,41.35
2018-06-18T12:09:07.686Z,40.87
2018-06-18T12:11:36.497Z,39.05
2018-06-18T12:14:05.223Z,39.96
2018-06-18T12:16:35.548Z,39.28
2018-06-18T12:19:04.909Z,38.91
2018-06-18T12:21:33.854Z,38.91
2018-06-18T12:24:02.520Z,40.07
2018-06-18T12:26:32.858Z,41.56
2018-06-18T12:29:02.759Z,42.60
2018-06-18T12:31:31.450Z,42.69
2018-06-18T12:34:00.539Z,44.66
2018-06-18T12:36:29.224Z,43.75
2018-06-18T12:38:57.971Z,44.65
2018-06-18T12:41:26.672Z,45.08
2018-06-18T12:43:57.190Z,44.87
2018-06-18T12:46:31.211Z,44.29
2018-06-18T12:49:05.121Z,43.81
2018-06-18T12:51:38.906Z,43.97
2018-06-18T12:54:12.760Z,44.38
2018-06-18T12:56:46.737Z,43.66
2018-06-18T12:59:15.418Z,42.74
2018-06-18T13:01:50.065Z,42.92
2018-06-18T13:04:18.719Z,41.50
2018-06-18T13:06:47.413Z,41.72
2018-06-18T13:09:16.055Z,41.50
2018-06-18T13:11:44.669Z,41.94
2018-06-18T13:14:13.290Z,40.10
2018-06-18T13:16:41.974Z,40.15
2018-06-18T13:19:10.674Z,39.90
2018-06-18T13:21:39.405Z,39.14
2018-06-18T13:24:08.119Z,38.39
2018-06-18T13:26:36.752Z,40.56
2018-06-18T13:29:05.496Z,42.59
2018-06-18T13:31:34.354Z,42.72
2018-06-18T13:34:03.162Z,42.48
2018-06-18T13:36:31.788Z,41.43
2018-06-18T13:39:05.616Z,40.43
2018-06-18T13:41:39.550Z,41.58
2018-06-18T13:44:13.400Z,44.00
2018-06-18T13:46:47.061Z,45.48
2018-06-18T13:49:15.748Z,45.76
2018-06-18T13:51:44.706Z,46.48
2018-06-18T13:54:14.252Z,46.18
2018-06-18T13:56:42.859Z,46.92
2018-06-18T13:59:11.508Z,47.93
2018-06-18T14:01:40.200Z,48.72
2018-06-18T14:04:08.873Z,49.32
2018-06-18T14:06:37.530Z,50.36
2018-06-18T14:09:07.664Z,49.73
2018-06-18T14:11:36.452Z,51.52
2018-06-18T14:14:05.209Z,50.74
2018-06-18T14:16:33.852Z,51.95
2018-06-18T14:19:06.596Z,52.24
2018-06-18T14:21:35.287Z,51.79
2018-06-18T14:24:04.080Z,52.76
2018-06-18T14:26:32.807Z,52.77
2018-06-18T14:29:01.535Z,52.88
2018-06-18T14:31:35.399Z,52.91
2018-06-18T14:34:09.639Z,53.62
2018-06-18T14:36:43.659Z,52.65
2018-06-18T14:39:17.583Z,51.82
2018-06-18T14:41:46.289Z,52.68
2018-06-18T14:44:14.994Z,54.07
2018-06-18T14:46:43.675Z,55.17
2018-06-18T14:49:12.347Z,55.55
2018-06-18T14:51:41.057Z,56.11
2018-06-18T14:54:09.951Z,55.95
2018-06-18T14:56:38.755Z,56.73
2018-06-18T14:59:15.289Z,56.70
2018-06-18T15:01:44.010Z,54.85
2018-06-18T15:04:12.664Z,54.72
2018-06-18T15:06:41.342Z,61.72
2018-06-18T15:09:14.239Z,62.28
2018-06-18T15:11:43.617Z,65.94
2018-06-18T15:14:12.427Z,66.74
2018-06-18T15:16:41.140Z,67.13
2018-06-18T15:19:09.850Z,69.06
2018-06-18T15:21:41.567Z,70.94
2018-06-18T15:24:13.118Z,72.00
2018-06-18T15:26:41.741Z,78.04
2018-06-18T15:29:10.520Z,77.94
2018-06-18T15:31:39.212Z,80.31
2018-06-18T15:34:07.833Z,82.40
2018-06-18T15:36:36.529Z,83.75
2018-06-18T15:39:08.279Z,84.37
2018-06-18T15:41:36.945Z,80.73
2018-06-18T15:44:05.672Z,78.99
2018-06-18T15:46:34.282Z,82.39
2018-06-18T15:49:02.911Z,86.01
2018-06-18T15:51:31.550Z,86.17
2018-06-18T15:54:00.218Z,85.84
2018-06-18T15:56:28.967Z,87.01
2018-06-18T15:58:57.602Z,86.30
2018-06-18T16:01:26.246Z,86.23
2018-06-18T16:03:54.910Z,86.39
2018-06-18T16:06:23.607Z,83.65
2018-06-18T16:08:52.269Z,85.31
2018-06-18T16:11:20.978Z,83.80
2018-06-18T16:13:49.626Z,84.34
2018-06-18T16:16:18.355Z,84.20
2018-06-18T16:18:47.030Z,84.85
2018-06-18T16:21:15.662Z,85.34
2018-06-18T16:23:44.443Z,84.37
2018-06-18T16:26:13.082Z,83.98
2018-06-18T16:28:41.769Z,84.53
2018-06-18T16:31:10.446Z,84.43
2018-06-18T16:33:39.285Z,83.81
2018-06-18T16:36:07.969Z,84.70
2018-06-18T16:38:36.703Z,84.78
2018-06-18T16:41:05.357Z,83.52
2018-06-18T16:43:34.089Z,84.23
2018-06-18T16:46:02.776Z,83.79
2018-06-18T16:48:31.528Z,84.97
2018-06-18T16:51:00.181Z,85.46
2018-06-18T16:53:28.861Z,81.66
2018-06-18T16:55:57.500Z,82.23
2018-06-18T16:58:26.151Z,81.18
2018-06-18T17:00:54.757Z,81.56
2018-06-18T17:03:23.375Z,81.74
2018-06-18T17:05:52.401Z,83.22
2018-06-18T17:08:21.021Z,84.02
2018-06-18T17:10:49.792Z,85.54
2018-06-18T17:13:18.480Z,85.78
2018-06-18T17:15:47.230Z,85.60
2018-06-18T17:18:15.900Z,85.03
2018-06-18T17:20:44.630Z,85.15
2018-06-18T17:23:13.338Z,85.50
2018-06-18T17:25:41.994Z,84.83
2018-06-18T17:28:10.904Z,84.28
2018-06-18T17:30:40.404Z,84.39
2018-06-18T17:33:09.092Z,84.59
2018-06-18T17:35:37.845Z,84.63
2018-06-18T17:38:07.004Z,84.50
2018-06-18T17:40:35.772Z,85.20
2018-06-18T17:43:04.980Z,85.04
2018-06-18T17:45:33.585Z,84.40
2018-06-18T17:48:02.246Z,84.52
2018-06-18T17:50:31.522Z,84.45
2018-06-18T17:53:00.298Z,83.23
2018-06-18T17:55:29.065Z,84.46
2018-06-18T17:57:57.755Z,83.79
2018-06-18T18:00:26.568Z,83.43
2018-06-18T18:02:56.701Z,84.28
2018-06-18T18:05:25.397Z,83.90
2018-06-18T18:07:54.470Z,84.43
2018-06-18T18:10:24.288Z,84.22
2018-06-18T18:12:53.006Z,84.36
2018-06-18T18:15:21.737Z,84.57
2018-06-18T18:17:50.457Z,83.17
2018-06-18T18:20:19.726Z,83.87
2018-06-18T18:22:49.571Z,82.82
2018-06-18T18:25:18.505Z,83.33
2018-06-18T18:27:47.167Z,82.46
2018-06-18T18:30:15.868Z,82.60
2018-06-18T18:32:44.561Z,82.83
2018-06-18T18:35:13.449Z,83.13
2018-06-18T18:37:42.125Z,84.40
2018-06-18T18:40:10.821Z,84.37
2018-06-18T18:42:40.063Z,83.84
2018-06-18T18:45:08.775Z,82.95
2018-06-18T18:47:37.568Z,82.24
2018-06-18T18:50:06.686Z,83.69
2018-06-18T18:52:35.360Z,84.15
2018-06-18T18:55:44.821Z,84.00
2018-06-18T18:58:24.667Z,85.07
2018-06-18T19:00:53.759Z,85.26
2018-06-18T19:03:24.159Z,85.00
2018-06-18T19:05:53.477Z,85.19
2018-06-18T19:08:25.897Z,84.83
2018-06-18T19:10:54.761Z,84.80
2018-06-18T19:13:26.401Z,85.44
2018-06-18T19:15:55.791Z,84.69
2018-06-18T19:18:24.649Z,84.76
2018-06-18T19:20:59.729Z,84.85
2018-06-18T19:23:28.585Z,85.48
2018-06-18T19:25:57.328Z,85.29
2018-06-18T19:28:26.984Z,84.63
2018-06-18T19:31:02.540Z,84.10
2018-06-18T19:33:38.393Z,84.01
2018-06-18T19:36:08.092Z,84.18
2018-06-18T19:38:36.867Z,84.25
2018-06-18T19:41:05.536Z,85.04
2018-06-18T19:43:34.296Z,83.94
2018-06-18T19:46:04.089Z,83.80
2018-06-18T19:48:36.562Z,83.91
2018-06-18T19:51:05.261Z,83.96
2018-06-18T19:53:34.005Z,84.47
2018-06-18T19:56:02.756Z,85.55
2018-06-18T19:58:31.415Z,85.18
2018-06-18T20:01:03.051Z,85.46
2018-06-18T20:03:31.724Z,84.79
2018-06-18T20:06:01.661Z,85.19
2018-06-18T20:08:32.235Z,85.30
2018-06-18T20:11:01.120Z,84.85
2018-06-18T20:13:29.805Z,85.76
2018-06-18T20:15:58.503Z,85.46
2018-06-18T20:18:27.117Z,85.68
2018-06-18T20:20:55.814Z,85.56
2018-06-18T20:23:26.055Z,84.91
2018-06-18T20:26:06.483Z,84.64
2018-06-18T20:28:35.125Z,85.06
2018-06-18T20:31:03.794Z,85.58
2018-06-18T20:33:34.529Z,84.77
2018-06-18T20:36:06.709Z,84.36
2018-06-18T20:38:36.129Z,84.30
2018-06-18T20:41:04.786Z,84.34
2018-06-18T20:43:45.985Z,84.42
2018-06-18T20:46:14.915Z,84.27
2018-06-18T20:48:44.116Z,84.80
2018-06-18T20:51:13.159Z,84.68
2018-06-18T20:53:42.214Z,83.63
2018-06-18T20:56:11.964Z,83.42
2018-06-18T20:58:40.619Z,83.37
2018-06-18T21:01:09.430Z,83.69
2018-06-18T21:03:38.081Z,83.43
2018-06-18T21:06:06.720Z,83.52
2018-06-18T21:08:35.520Z,83.45
2018-06-18T21:11:04.274Z,83.95
2018-06-18T21:13:33.011Z,84.14
2018-06-18T21:16:02.520Z,84.26
2018-06-18T21:18:31.230Z,83.84
2018-06-18T21:20:59.909Z,83.64
2018-06-18T21:23:28.522Z,84.15
2018-06-18T21:25:57.211Z,83.72
2018-06-18T21:28:25.845Z,83.44
2018-06-18T21:30:54.643Z,83.19
2018-06-18T21:33:24.343Z,83.43
2018-06-18T21:35:53.006Z,84.32
2018-06-18T21:38:21.642Z,84.80
2018-06-18T21:40:50.322Z,84.82
2018-06-18T21:43:19.426Z,84.82
2018-06-18T21:45:48.196Z,85.08
2018-06-18T21:48:16.905Z,84.62
2018-06-18T21:50:45.670Z,84.80
2018-06-18T21:53:14.324Z,85.42
2018-06-18T21:55:43.014Z,85.01
2018-06-18T21:58:11.743Z,84.86
2018-06-18T22:00:44.836Z,85.03
2018-06-18T22:03:13.561Z,85.15
2018-06-18T22:05:42.291Z,85.51
2018-06-18T22:08:13.259Z,85.28
2018-06-18T22:10:41.916Z,85.10
2018-06-18T22:13:10.622Z,84.88
2018-06-18T22:15:39.382Z,84.53
2018-06-18T22:18:08.071Z,84.74
2018-06-18T22:20:36.821Z,84.71
2018-06-18T22:23:05.572Z,84.88
2018-06-18T22:25:34.363Z,85.27
2018-06-18T22:28:04.225Z,85.81
2018-06-18T22:30:33.004Z,85.21
2018-06-18T22:33:01.660Z,85.44
2018-06-18T22:35:30.391Z,84.80
2018-06-18T22:37:59.040Z,85.01
2018-06-18T22:40:27.710Z,84.89
2018-06-18T22:42:56.350Z,85.14
2018-06-18T22:45:25.003Z,85.03
2018-06-18T22:47:53.762Z,84.29
2018-06-18T22:50:22.486Z,84.10
2018-06-18T22:52:51.136Z,83.79
2018-06-18T22:55:19.873Z,83.67
2018-06-18T22:57:48.499Z,84.44
2018-06-18T23:00:17.241Z,84.26
2018-06-18T23:02:45.918Z,84.03
2018-06-18T23:05:14.617Z,83.96
2018-06-18T23:07:43.294Z,83.51
2018-06-18T23:10:11.951Z,83.70
2018-06-18T23:12:42.818Z,84.96
2018-06-18T23:15:12.643Z,84.23
2018-06-18T23:17:41.478Z,84.47
2018-06-18T23:20:10.840Z,84.46
2018-06-18T23:22:40.197Z,84.14
2018-06-18T23:25:09.253Z,84.71
2018-06-18T23:27:37.948Z,84.50
2018-06-18T23:30:07.035Z,84.05
2018-06-18T23:32:35.675Z,84.30
2018-06-18T23:35:04.376Z,84.20
2018-06-18T23:37:33.088Z,84.00
2018-06-18T23:40:01.750Z,84.13
2018-06-18T23:42:30.489Z,84.35
2018-06-18T23:44:59.299Z,84.57
2018-06-18T23:47:27.972Z,84.55
2018-06-18T23:49:56.650Z,84.30
2018-06-18T23:52:25.314Z,84.77
2018-06-18T23:54:53.962Z,85.03
2018-06-18T23:57:22.667Z,84.72
2018-06-18T23:59:51.334Z,84.54
